Time;durP1;ratioP1;P1;durP2;ratioP2;P2;SDS_P1;SDS_P2;PMS_P1;PMS_P2;Temp;Humidity;BMP_temperature;BMP_pressure;BME280_temperature;BME280_humidity;BME280_pressure;Samples;Min_cycle;Max_cycle;Signal;HPM_P1;HPM_P2
2022/01/03 00:02:25;;;;;;;217.15;115.47;;;3.30;1.00;;;;;;5056271;28;20053;-77
2022/01/03 00:04:53;;;;;;;262.95;137.32;;;3.40;1.00;;;;;;5062915;28;20051;-79
2022/01/03 00:07:21;;;;;;;344.30;183.25;;;3.40;1.00;;;;;;5046675;28;20527;-78
2022/01/03 00:09:48;;;;;;;338.95;180.70;;;3.40;99.90;;;;;;5045334;28;20135;-78
2022/01/03 00:12:21;;;;;;;298.00;154.50;;;3.30;99.00;;;;;;5056989;28;20116;-79
2022/01/03 00:14:50;;;;;;;283.25;145.85;;;3.30;99.90;;;;;;5038447;28;20049;-78
2022/01/03 00:17:19;;;;;;;311.10;166.82;;;3.30;99.90;;;;;;5040472;28;20128;-78
2022/01/03 00:19:46;;;;;;;297.35;156.70;;;3.30;99.90;;;;;;5059414;28;20048;-78
2022/01/03 00:22:18;;;;;;;292.33;154.88;;;3.20;80.00;;;;;;5039910;28;20114;-79
2022/01/03 00:24:50;;;;;;;250.10;136.90;;;3.20;94.60;;;;;;5039113;28;20049;-79
2022/01/03 00:27:19;;;;;;;202.25;107.45;;;3.20;99.90;;;;;;5057743;28;20052;-78
2022/01/03 00:29:51;;;;;;;210.60;111.78;;;3.20;99.90;;;;;;5056331;28;20048;-77
2022/01/03 00:32:23;;;;;;;202.65;108.07;;;3.20;1.00;;;;;;5041962;28;20068;-76
2022/01/03 00:34:53;;;;;;;218.07;115.30;;;3.20;1.00;;;;;;5057238;28;20099;-77
2022/01/03 00:37:24;;;;;;;214.88;113.18;;;3.20;1.00;;;;;;5057240;28;20049;-77
2022/01/03 00:39:52;;;;;;;266.30;139.30;;;3.30;1.00;;;;;;5057457;28;20048;-77
2022/01/03 00:42:21;;;;;;;278.10;144.77;;;3.30;1.00;;;;;;5055632;28;20049;-77
2022/01/03 00:44:49;;;;;;;270.52;139.90;;;3.30;1.00;;;;;;5037593;28;20468;-77
2022/01/03 00:47:17;;;;;;;290.48;145.52;;;3.20;99.90;;;;;;5037576;28;20055;-77
2022/01/03 00:49:46;;;;;;;295.63;146.40;;;3.20;1.00;;;;;;5057936;28;20404;-77
2022/01/03 00:52:14;;;;;;;249.10;129.38;;;3.10;1.00;;;;;;5038440;28;20059;-77
2022/01/03 00:54:41;;;;;;;266.55;137.30;;;3.10;1.00;;;;;;5039842;28;20053;-78
2022/01/03 00:57:20;;;;;;;230.50;121.55;;;3.10;1.00;;;;;;5056265;28;20064;-78
2022/01/03 00:59:57;;;;;;;228.88;117.57;;;3.10;1.00;;;;;;5038838;28;20135;-77
2022/01/03 01:02:28;;;;;;;218.55;115.07;;;3.10;13.90;;;;;;5033935;28;20053;-78
2022/01/03 01:05:00;;;;;;;162.73;86.80;;;3.00;99.90;;;;;;5017788;28;20068;-77
2022/01/03 01:07:31;;;;;;;159.43;84.22;;;3.10;1.00;;;;;;5034909;28;20045;-77
2022/01/03 01:10:02;;;;;;;180.13;95.82;;;3.10;99.90;;;;;;5017633;28;20081;-79
2022/01/03 01:12:31;;;;;;;188.77;101.18;;;3.10;99.90;;;;;;5034492;28;20526;-77
2022/01/03 01:14:59;;;;;;;215.65;113.22;;;3.20;99.90;;;;;;5034731;28;20069;-77
2022/01/03 01:17:28;;;;;;;245.93;123.43;;;3.20;1.00;;;;;;5032883;28;20049;-78
2022/01/03 01:20:00;;;;;;;264.17;132.50;;;3.20;1.00;;;;;;5034684;28;20457;-78
2022/01/03 01:22:28;;;;;;;239.82;123.07;;;3.20;99.90;;;;;;5016588;28;20052;-78
2022/01/03 01:25:24;;;;;;;256.02;128.73;;;3.20;99.90;;;;;;5033629;28;20067;-78
2022/01/03 01:27:53;;;;;;;250.82;125.85;;;3.20;84.90;;;;;;5033944;28;20046;-78
2022/01/03 01:30:26;;;;;;;259.42;131.68;;;3.30;1.00;;;;;;5028737;28;20044;-79
2022/01/03 01:33:02;;;;;;;255.25;128.93;;;3.20;1.00;;;;;;5020250;28;20041;-78
2022/01/03 01:35:38;;;;;;;231.38;114.05;;;3.00;1.00;;;;;;5052415;28;20033;-79
2022/01/03 01:38:10;;;;;;;199.82;104.13;;;3.00;76.10;;;;;;5026341;28;20462;-79
2022/01/03 01:40:45;;;;;;;211.73;111.85;;;3.10;99.90;;;;;;5036396;28;20531;-78
2022/01/03 01:43:14;;;;;;;219.68;110.22;;;3.00;81.10;;;;;;5034503;28;20045;-78
2022/01/03 01:45:46;;;;;;;252.30;124.70;;;3.00;99.90;;;;;;5036414;28;20076;-79
2022/01/03 01:48:13;;;;;;;231.38;114.75;;;2.90;99.90;;;;;;5034199;28;20042;-78
2022/01/03 01:50:43;;;;;;;202.52;99.88;;;2.90;99.90;;;;;;5034707;28;20045;-77
2022/01/03 01:53:19;;;;;;;192.02;99.13;;;2.90;99.90;;;;;;5032877;28;20045;-77
2022/01/03 01:55:51;;;;;;;185.95;94.75;;;2.90;99.90;;;;;;5033225;28;20188;-77
2022/01/03 01:58:29;;;;;;;192.52;96.07;;;3.00;1.00;;;;;;5016277;28;20048;-78
2022/01/03 02:01:02;;;;;;;183.23;94.93;;;2.90;1.00;;;;;;5019050;28;20052;-79
2022/01/03 02:03:41;;;;;;;196.45;101.32;;;2.90;99.90;;;;;;5039901;28;20062;-82
2022/01/03 02:06:26;;;;;;;196.85;100.72;;;2.90;99.90;;;;;;5040125;28;20472;-82
2022/01/03 02:09:04;;;;;;;199.82;106.32;;;2.80;99.90;;;;;;5039346;28;20045;-82
2022/01/03 02:11:45;;;;;;;182.38;95.28;;;2.80;99.90;;;;;;5024349;28;20041;-81
2022/01/03 02:14:13;;;;;;;145.63;81.55;;;2.80;99.90;;;;;;5041146;28;20041;-81
2022/01/03 02:16:41;;;;;;;179.77;94.35;;;2.80;99.90;;;;;;5040711;28;20420;-81
2022/01/03 02:19:09;;;;;;;171.00;90.45;;;2.80;99.90;;;;;;5039094;28;20046;-81
2022/01/03 02:21:39;;;;;;;168.60;89.25;;;2.90;99.90;;;;;;5022681;28;20049;-82
2022/01/03 02:24:10;;;;;;;174.20;94.95;;;2.90;99.90;;;;;;5038747;28;20052;-83
2022/01/03 02:26:40;;;;;;;215.35;107.30;;;2.80;99.90;;;;;;5022602;28;20049;-80
2022/01/03 02:29:08;;;;;;;215.95;108.15;;;2.70;18.20;;;;;;5041502;28;20051;-82
2022/01/03 02:31:38;;;;;;;208.18;106.90;;;2.70;26.60;;;;;;5040877;28;20045;-82
2022/01/03 02:34:06;;;;;;;187.93;95.50;;;2.60;10.50;;;;;;5040470;28;20049;-82
2022/01/03 02:36:35;;;;;;;160.77;84.25;;;2.60;45.70;;;;;;5023240;28;20576;-82
2022/01/03 02:39:05;;;;;;;165.20;86.45;;;2.70;99.90;;;;;;5040685;28;20420;-83
2022/01/03 02:41:33;;;;;;;150.75;82.30;;;2.70;99.90;;;;;;5023937;28;20099;-83
2022/01/03 02:44:01;;;;;;;160.10;83.78;;;2.70;68.90;;;;;;5041244;28;20098;-79
2022/01/03 02:46:30;;;;;;;169.27;89.35;;;2.70;12.10;;;;;;5041922;28;20531;-82
2022/01/03 02:48:57;;;;;;;158.07;86.85;;;2.70;1.00;;;;;;5040163;28;20053;-82
2022/01/03 02:51:25;;;;;;;159.68;84.97;;;2.60;1.00;;;;;;5041849;28;20045;-82
2022/01/03 02:53:52;;;;;;;124.50;65.82;;;2.60;1.00;;;;;;5041290;28;20049;-83
2022/01/03 02:56:23;;;;;;;119.05;64.95;;;2.50;1.00;;;;;;5041035;28;20048;-81
2022/01/03 02:58:50;;;;;;;130.68;70.03;;;2.50;1.00;;;;;;5022633;28;20045;-82
2022/01/03 03:01:18;;;;;;;130.07;69.70;;;2.50;99.90;;;;;;5024210;28;20192;-82
2022/01/03 03:03:50;;;;;;;131.07;68.60;;;2.50;99.90;;;;;;5041767;28;20061;-83
2022/01/03 03:06:18;;;;;;;142.20;74.03;;;2.50;99.90;;;;;;5058975;28;20095;-80
2022/01/03 03:08:46;;;;;;;162.00;81.97;;;2.60;99.90;;;;;;5051331;28;20128;-81
2022/01/03 03:11:14;;;;;;;159.38;87.72;;;2.60;69.40;;;;;;5047288;28;20503;-80
2022/01/03 03:13:43;;;;;;;153.02;82.63;;;2.50;1.00;;;;;;5040563;28;20152;-82
2022/01/03 03:16:11;;;;;;;151.18;82.18;;;2.50;1.00;;;;;;5040866;28;20566;-81
2022/01/03 03:18:38;;;;;;;168.52;87.28;;;2.40;1.00;;;;;;5061271;28;20106;-81
2022/01/03 03:21:07;;;;;;;150.75;81.88;;;2.30;20.70;;;;;;5059666;28;20045;-80
2022/01/03 03:23:35;;;;;;;156.88;79.30;;;2.30;99.90;;;;;;5040410;28;20580;-80
2022/01/03 03:26:03;;;;;;;155.20;82.05;;;2.40;99.90;;;;;;5039867;28;20179;-81
2022/01/03 03:28:30;;;;;;;155.27;81.18;;;2.40;6.70;;;;;;5058764;28;20041;-79
2022/01/03 03:31:03;;;;;;;158.57;83.38;;;2.40;1.00;;;;;;5040586;28;20412;-80
2022/01/03 03:33:38;;;;;;;159.43;79.50;;;2.30;1.00;;;;;;5040693;28;20048;-80
2022/01/03 03:36:07;;;;;;;135.63;71.15;;;2.30;1.00;;;;;;5040081;28;20055;-82
2022/01/03 03:38:36;;;;;;;136.73;71.57;;;2.30;1.00;;;;;;5039654;28;20066;-82
2022/01/03 03:41:08;;;;;;;110.90;58.67;;;2.30;99.90;;;;;;5048306;28;20499;-82
2022/01/03 03:43:41;;;;;;;84.55;44.35;;;2.30;99.90;;;;;;5059019;28;20087;-81
2022/01/03 03:46:15;;;;;;;72.82;40.83;;;2.30;1.00;;;;;;5039367;28;20044;-80
2022/01/03 03:48:43;;;;;;;102.47;55.90;;;2.40;1.00;;;;;;5039518;28;20064;-82
2022/01/03 03:51:14;;;;;;;92.88;49.60;;;2.40;99.90;;;;;;5040048;28;20412;-81
2022/01/03 03:53:44;;;;;;;102.90;52.85;;;2.30;99.90;;;;;;5039382;28;20117;-82
2022/01/03 03:56:12;;;;;;;93.00;50.97;;;2.30;99.90;;;;;;5039625;28;20462;-81
2022/01/03 03:58:41;;;;;;;96.65;52.45;;;2.20;99.90;;;;;;5039509;28;20492;-81
2022/01/03 04:01:08;;;;;;;94.90;52.17;;;2.20;99.90;;;;;;5039707;28;20053;-81
2022/01/03 04:03:39;;;;;;;97.45;51.90;;;2.20;99.90;;;;;;5039443;28;20057;-81
2022/01/03 04:06:07;;;;;;;94.95;51.05;;;2.20;99.90;;;;;;5058229;28;20044;-81
2022/01/03 04:08:34;;;;;;;87.90;47.50;;;2.10;99.90;;;;;;5039871;28;20049;-81
2022/01/03 04:11:02;;;;;;;89.03;47.47;;;2.20;99.90;;;;;;5038411;28;20053;-81
2022/01/03 04:13:31;;;;;;;93.00;50.03;;;2.30;99.90;;;;;;5039118;28;20431;-82
2022/01/03 04:15:59;;;;;;;85.28;48.28;;;2.30;99.90;;;;;;5039383;28;20047;-81
2022/01/03 04:18:26;;;;;;;87.57;49.00;;;2.30;99.90;;;;;;5046370;28;20049;-81
2022/01/03 04:20:55;;;;;;;78.80;43.63;;;2.40;99.90;;;;;;5046207;28;20102;-81
2022/01/03 04:23:24;;;;;;;82.55;45.70;;;2.40;99.90;;;;;;5050756;28;20051;-82
2022/01/03 04:25:52;;;;;;;83.20;45.88;;;2.30;99.90;;;;;;5041275;28;20048;-81
2022/01/03 04:28:21;;;;;;;79.50;44.78;;;2.40;99.90;;;;;;5055434;28;20415;-80
2022/01/03 04:30:51;;;;;;;91.97;48.22;;;2.40;99.90;;;;;;5039979;28;20045;-80
2022/01/03 04:33:19;;;;;;;92.65;50.22;;;2.50;99.90;;;;;;5043359;28;20481;-83
2022/01/03 04:35:46;;;;;;;98.00;50.25;;;2.50;1.00;;;;;;5049030;28;20041;-81
2022/01/03 04:38:15;;;;;;;99.05;51.65;;;2.60;1.00;;;;;;5054088;28;20041;-81
2022/01/03 04:40:43;;;;;;;88.22;48.20;;;2.50;1.00;;;;;;5050304;28;20143;-80
2022/01/03 04:43:10;;;;;;;89.20;47.08;;;2.50;1.00;;;;;;5042621;28;20145;-81
2022/01/03 04:45:38;;;;;;;88.90;47.53;;;2.50;1.00;;;;;;5050101;28;20099;-81
2022/01/03 04:48:06;;;;;;;90.13;50.22;;;2.50;1.00;;;;;;5039708;28;20048;-81
2022/01/03 04:50:34;;;;;;;95.88;49.65;;;2.40;1.00;;;;;;5038435;28;20045;-81
2022/01/03 04:53:02;;;;;;;95.68;51.53;;;2.30;1.00;;;;;;5039667;28;20052;-81
2022/01/03 04:55:31;;;;;;;93.05;53.45;;;2.30;1.00;;;;;;5065317;28;20067;-83
2022/01/03 04:57:59;;;;;;;92.38;51.70;;;2.20;1.00;;;;;;5041353;28;20049;-82
2022/01/03 05:00:27;;;;;;;96.68;49.60;;;2.20;1.00;;;;;;5038425;28;20045;-83
2022/01/03 05:02:54;;;;;;;101.45;52.90;;;2.30;1.00;;;;;;5038072;28;20121;-83
2022/01/03 05:05:23;;;;;;;115.70;59.90;;;2.30;1.00;;;;;;5035549;28;20072;-82
2022/01/03 05:07:51;;;;;;;127.85;67.85;;;2.40;1.00;;;;;;5036944;28;20484;-82
2022/01/03 05:10:19;;;;;;;123.30;63.63;;;2.30;1.00;;;;;;5040841;28;20479;-81
2022/01/03 05:12:49;;;;;;;94.25;51.92;;;2.30;1.00;;;;;;5042895;28;20041;-82
2022/01/03 05:15:16;;;;;;;93.25;50.10;;;2.30;1.00;;;;;;5047786;28;20100;-82
2022/01/03 05:17:43;;;;;;;94.45;53.15;;;2.30;1.00;;;;;;5047207;28;20057;-82
2022/01/03 05:20:12;;;;;;;95.88;51.20;;;2.40;1.00;;;;;;5045692;28;20459;-81
2022/01/03 05:22:41;;;;;;;94.30;52.80;;;2.40;1.00;;;;;;5050580;28;20055;-81
2022/01/03 05:25:11;;;;;;;92.93;53.13;;;2.40;1.00;;;;;;5033361;28;20480;-80
2022/01/03 05:27:40;;;;;;;92.28;51.60;;;2.40;1.00;;;;;;5033969;28;20049;-81
2022/01/03 05:30:11;;;;;;;91.18;50.17;;;2.30;1.00;;;;;;5032973;28;20044;-80
2022/01/03 05:32:39;;;;;;;89.22;49.47;;;2.30;1.00;;;;;;5034071;28;20052;-80
2022/01/03 05:35:07;;;;;;;94.15;50.63;;;2.30;1.00;;;;;;5034277;28;20120;-80
2022/01/03 05:37:35;;;;;;;85.18;49.42;;;2.30;1.00;;;;;;5034433;28;20119;-81
2022/01/03 05:40:05;;;;;;;102.70;53.80;;;2.30;1.00;;;;;;5037706;28;20046;-79
2022/01/03 05:42:33;;;;;;;92.50;54.35;;;2.30;1.00;;;;;;5049962;28;20045;-82
2022/01/03 05:45:01;;;;;;;97.88;54.70;;;2.30;1.00;;;;;;5045609;28;20052;-83
2022/01/03 05:47:31;;;;;;;91.78;53.67;;;2.30;1.00;;;;;;5035211;28;20072;-80
2022/01/03 05:50:00;;;;;;;103.07;61.17;;;2.30;1.00;;;;;;5051701;28;20069;-81
2022/01/03 05:52:28;;;;;;;103.93;57.88;;;2.30;1.00;;;;;;5045805;28;20056;-82
2022/01/03 05:54:56;;;;;;;93.28;52.00;;;2.30;1.00;;;;;;5038364;28;20045;-81
2022/01/03 05:57:24;;;;;;;86.95;50.45;;;2.30;64.20;;;;;;5034297;28;20076;-81
2022/01/03 05:59:51;;;;;;;90.15;51.10;;;2.40;99.90;;;;;;5033722;28;20133;-80
2022/01/03 06:02:19;;;;;;;97.68;55.28;;;2.40;12.80;;;;;;5040823;28;20423;-81
2022/01/03 06:04:58;;;;;;;120.13;62.00;;;2.40;1.00;;;;;;5036230;28;20091;-81
2022/01/03 06:07:26;;;;;;;;;;;2.30;1.00;;;;;;5037470;28;20052;-81
2022/01/03 06:09:54;;;;;;;122.25;63.60;;;2.30;1.00;;;;;;5038419;28;19921;-81
2022/01/03 06:12:21;;;;;;;119.75;62.90;;;2.30;1.00;;;;;;5037299;28;20053;-81
2022/01/03 06:14:53;;;;;;;116.78;62.88;;;2.50;26.30;;;;;;5036454;28;20061;-81
2022/01/03 06:17:21;;;;;;;99.90;56.15;;;2.50;1.00;;;;;;5036596;28;20049;-81
2022/01/03 06:19:53;;;;;;;95.75;52.08;;;2.70;1.00;;;;;;5037566;28;20132;-82
2022/01/03 06:22:22;;;;;;;103.43;55.03;;;2.70;1.00;;;;;;5037531;28;20053;-81
2022/01/03 06:24:55;;;;;;;115.75;62.33;;;2.80;1.00;;;;;;5036312;28;20044;-81
2022/01/03 06:27:23;;;;;;;112.60;61.65;;;2.80;1.00;;;;;;5037069;28;20041;-81
2022/01/03 06:29:51;;;;;;;119.55;65.35;;;2.90;1.00;;;;;;5036742;28;20049;-81
2022/01/03 06:32:18;;;;;;;112.30;61.35;;;2.90;1.00;;;;;;5036658;28;20048;-81
2022/01/03 06:34:46;;;;;;;117.38;65.28;;;2.90;1.00;;;;;;5036649;28;20512;-81
2022/01/03 06:37:15;;;;;;;134.02;75.50;;;3.00;99.90;;;;;;5054005;28;20122;-81
2022/01/03 06:40:07;;;;;;;151.07;84.90;;;3.00;99.90;;;;;;5038312;28;20114;-81
2022/01/03 06:42:35;;;;;;;157.00;86.50;;;2.90;99.90;;;;;;5037254;28;20428;-82
2022/01/03 06:45:04;;;;;;;159.85;86.85;;;2.90;99.90;;;;;;5038548;28;20056;-82
2022/01/03 06:47:32;;;;;;;139.77;78.50;;;2.90;99.90;;;;;;5038107;28;20071;-83
2022/01/03 06:49:59;;;;;;;124.15;70.15;;;2.90;99.90;;;;;;5039371;28;20490;-80
2022/01/03 06:52:29;;;;;;;126.78;66.90;;;2.90;99.90;;;;;;5039844;28;20045;-82
2022/01/03 06:54:56;;;;;;;129.10;68.55;;;3.00;1.00;;;;;;5041498;28;20099;-81
2022/01/03 06:57:25;;;;;;;120.60;68.07;;;3.10;1.00;;;;;;5056384;28;20041;-81
2022/01/03 06:59:53;;;;;;;126.95;68.15;;;3.10;1.00;;;;;;5042279;28;20127;-81
2022/01/03 07:02:21;;;;;;;147.18;78.03;;;3.10;1.00;;;;;;5055156;28;20539;-79
2022/01/03 07:04:49;;;;;;;163.60;90.10;;;3.10;1.00;;;;;;5057403;28;20048;-81
2022/01/03 07:07:17;;;;;;;149.40;85.88;;;3.00;99.90;;;;;;5056819;28;20049;-82
2022/01/03 07:09:45;;;;;;;137.60;80.30;;;2.90;99.90;;;;;;5056989;28;20470;-81
2022/01/03 07:12:13;;;;;;;148.25;86.78;;;2.90;99.90;;;;;;5039175;28;20231;-81
2022/01/03 07:20:11;;;;;;;217.80;118.07;;;3.10;1.00;;;;;;5057595;28;20048;-82
2022/01/03 07:22:40;;;;;;;228.25;124.05;;;3.10;1.00;;;;;;5057537;28;20041;-81
2022/01/03 07:25:10;;;;;;;203.85;114.00;;;3.10;1.00;;;;;;5038571;28;20048;-81
2022/01/03 07:27:38;;;;;;;212.95;118.32;;;3.20;1.00;;;;;;5055998;28;20052;-82
2022/01/03 07:30:06;;;;;;;215.40;117.60;;;3.20;1.00;;;;;;5057924;28;20056;-81
2022/01/03 07:32:34;;;;;;;199.77;111.88;;;3.20;99.90;;;;;;5065073;28;20099;-81
2022/01/03 07:35:01;;;;;;;215.68;121.78;;;3.20;99.90;;;;;;5044302;28;20491;-81
2022/01/03 07:37:29;;;;;;;209.57;119.60;;;3.20;99.90;;;;;;5038731;28;20558;-81
2022/01/03 07:39:56;;;;;;;201.85;116.50;;;3.20;99.90;;;;;;5057976;28;20060;-81
2022/01/03 07:42:26;;;;;;;211.48;118.75;;;3.30;1.00;;;;;;5040625;28;20492;-81
2022/01/03 07:44:57;;;;;;;219.05;120.30;;;3.40;1.00;;;;;;5039792;28;20045;-81
2022/01/03 07:47:24;;;;;;;416.60;241.07;;;3.50;99.90;;;;;;5056013;28;20048;-81
2022/01/03 07:49:51;;;;;;;344.45;200.70;;;3.70;99.90;;;;;;5039884;28;20055;-81
2022/01/03 07:52:19;;;;;;;370.33;214.73;;;3.70;99.90;;;;;;5059031;28;20049;-80
2022/01/03 07:54:47;;;;;;;365.58;210.85;;;3.90;99.90;;;;;;5038690;28;20526;-76
2022/01/03 07:57:15;;;;;;;280.13;159.98;;;4.00;99.90;;;;;;5056623;28;20087;-78
2022/01/03 07:59:45;;;;;;;305.77;178.77;;;4.10;99.90;;;;;;5056303;28;20095;-79
2022/01/03 08:02:13;;;;;;;310.55;188.38;;;4.10;38.30;;;;;;5055851;22;20079;-83
2022/01/03 08:04:41;;;;;;;316.13;191.70;;;4.20;1.00;;;;;;5065663;28;20076;-84
2022/01/03 08:07:09;;;;;;;323.25;192.13;;;4.30;1.00;;;;;;5046297;28;20045;-84
2022/01/03 08:09:36;;;;;;;324.75;192.95;;;4.30;1.00;;;;;;5046187;28;20041;-85
2022/01/03 08:12:05;;;;;;;299.98;182.18;;;4.30;1.00;;;;;;5044930;28;20500;-83
2022/01/03 08:14:33;;;;;;;268.90;157.20;;;4.30;1.00;;;;;;5044785;28;20049;-84
2022/01/03 08:17:02;;;;;;;248.02;139.90;;;4.30;1.00;;;;;;5040262;28;20566;-84
2022/01/03 08:19:29;;;;;;;211.45;125.93;;;4.50;1.00;;;;;;5041272;28;20554;-83
2022/01/03 08:21:57;;;;;;;207.52;124.40;;;4.60;1.00;;;;;;5041648;28;20538;-84
2022/01/03 08:24:24;;;;;;;190.68;115.88;;;4.70;1.00;;;;;;5054811;28;20051;-85
2022/01/03 08:26:52;;;;;;;181.20;108.55;;;4.90;1.00;;;;;;5036988;28;20056;-84
2022/01/03 08:29:19;;;;;;;213.05;123.93;;;5.10;1.00;;;;;;5037746;28;20041;-84
2022/01/03 08:31:47;;;;;;;230.20;137.43;;;5.20;1.00;;;;;;5038807;28;20121;-85
2022/01/03 08:34:16;;;;;;;235.13;143.82;;;5.40;1.00;;;;;;5039732;28;20049;-86
2022/01/03 08:36:43;;;;;;;266.60;160.65;;;5.60;1.00;;;;;;5043854;28;20045;-85
2022/01/03 08:39:11;;;;;;;256.70;151.68;;;5.60;1.00;;;;;;5043050;28;20053;-83
2022/01/03 08:41:38;;;;;;;273.50;165.55;;;5.80;1.00;;;;;;5073131;28;20065;-83
2022/01/03 08:44:06;;;;;;;264.75;160.45;;;6.00;1.00;;;;;;5039282;28;20041;-84
2022/01/03 08:46:34;;;;;;;244.90;145.52;;;6.20;1.00;;;;;;5037062;28;20446;-83
2022/01/03 08:49:01;;;;;;;215.27;130.82;;;6.30;1.00;;;;;;5036497;28;20051;-84
2022/01/03 08:51:31;;;;;;;197.48;121.68;;;6.60;1.00;;;;;;5036428;28;20500;-83
2022/01/03 08:53:59;;;;;;;211.23;129.88;;;6.60;1.00;;;;;;5037850;28;20164;-84
2022/01/03 08:56:26;;;;;;;209.20;127.18;;;6.70;1.00;;;;;;5038280;28;20041;-82
2022/01/03 08:58:54;;;;;;;185.35;115.60;;;6.70;19.90;;;;;;5038045;28;20047;-83
2022/01/03 09:01:22;;;;;;;188.15;113.07;;;6.80;99.90;;;;;;5037669;28;20049;-84
2022/01/03 09:03:50;;;;;;;185.48;112.82;;;7.10;1.00;;;;;;5037816;28;20057;-83
2022/01/03 09:06:18;;;;;;;180.48;109.57;;;7.30;1.00;;;;;;5037221;28;20041;-83
2022/01/03 09:08:48;;;;;;;194.10;116.13;;;7.50;1.00;;;;;;5035896;28;20049;-81
2022/01/03 09:11:16;;;;;;;187.18;112.97;;;7.60;1.00;;;;;;5036259;28;20059;-83
2022/01/03 09:13:43;;;;;;;197.80;116.85;;;7.70;1.00;;;;;;5050964;28;20049;-85
2022/01/03 09:16:11;;;;;;;184.57;111.28;;;7.70;1.00;;;;;;5036011;28;20049;-83
2022/01/03 09:18:40;;;;;;;172.65;111.32;;;7.60;99.90;;;;;;5035495;28;20049;-83
2022/01/03 09:21:09;;;;;;;173.68;103.57;;;7.70;99.90;;;;;;5036667;28;20501;-85
2022/01/03 09:23:40;;;;;;;158.15;99.75;;;7.80;1.00;;;;;;5038272;28;20057;-86
2022/01/03 09:28:56;;;;;;;189.27;116.65;;;8.20;1.00;;;;;;5038819;28;20077;-86
2022/01/03 09:31:26;;;;;;;157.13;98.22;;;8.40;99.90;;;;;;5038141;28;20484;-85
2022/01/03 09:33:55;;;;;;;161.40;99.95;;;8.70;99.90;;;;;;5055435;28;20049;-85
2022/01/03 09:36:23;;;;;;;168.77;104.38;;;9.00;1.00;;;;;;5048546;28;20118;-83
2022/01/03 09:38:51;;;;;;;221.35;138.00;;;9.10;1.00;;;;;;5040144;28;20083;-86
2022/01/03 09:41:22;;;;;;;210.98;127.13;;;9.20;99.90;;;;;;5055057;28;20038;-86
2022/01/03 09:43:52;;;;;;;193.90;118.88;;;9.20;1.00;;;;;;5047019;28;20056;-81
2022/01/03 09:46:25;;;;;;;217.88;130.45;;;9.40;99.90;;;;;;5052166;28;20049;-85
2022/01/03 09:48:54;;;;;;;218.07;135.27;;;9.40;1.00;;;;;;5039489;28;20075;-82
2022/01/03 09:51:23;;;;;;;218.23;135.30;;;9.50;1.00;;;;;;5054078;28;20049;-85
2022/01/03 09:53:52;;;;;;;232.68;141.60;;;9.70;1.00;;;;;;5054675;28;20163;-83
2022/01/03 09:56:21;;;;;;;230.30;141.80;;;9.70;1.00;;;;;;5037469;28;20443;-82
2022/01/03 09:58:49;;;;;;;239.55;149.77;;;9.70;1.00;;;;;;5038643;28;20096;-84
2022/01/03 10:01:17;;;;;;;239.82;144.90;;;9.80;1.00;;;;;;5038455;28;20132;-85
2022/01/03 10:03:48;;;;;;;239.65;146.73;;;9.80;1.00;;;;;;5038437;28;20054;-85
2022/01/03 10:06:17;;;;;;;229.68;142.13;;;9.80;1.00;;;;;;5037251;28;20088;-85
2022/01/03 10:08:45;;;;;;;222.90;136.15;;;9.90;1.00;;;;;;5035878;28;20411;-83
2022/01/03 10:11:13;;;;;;;213.80;132.45;;;10.00;1.00;;;;;;5036938;28;20045;-82
2022/01/03 10:13:43;;;;;;;217.80;132.85;;;10.10;1.00;;;;;;5036640;28;20050;-83
2022/01/03 10:16:10;;;;;;;215.75;135.98;;;10.30;1.00;;;;;;5036539;28;20048;-84
2022/01/03 10:18:38;;;;;;;219.63;135.10;;;10.40;1.00;;;;;;5036920;28;20052;-85
2022/01/03 10:21:08;;;;;;;221.18;138.50;;;10.70;1.00;;;;;;5037040;28;20061;-85
2022/01/03 10:23:35;;;;;;;202.93;125.03;;;10.90;1.00;;;;;;5056144;28;20045;-85
2022/01/03 10:26:15;;;;;;;186.25;118.55;;;11.00;1.00;;;;;;5040374;28;20045;-85
2022/01/03 10:28:44;;;;;;;167.25;107.10;;;11.10;21.90;;;;;;5040663;28;20478;-83
2022/01/03 10:31:16;;;;;;;157.40;102.05;;;11.10;1.00;;;;;;5041150;28;20124;-84
2022/01/03 10:33:44;;;;;;;161.68;99.07;;;11.20;1.00;;;;;;5040938;28;20045;-83
2022/01/03 10:36:28;;;;;;;149.93;95.40;;;11.20;8.90;;;;;;5040838;28;20162;-82
2022/01/03 10:38:58;;;;;;;157.95;97.63;;;11.30;1.00;;;;;;5039988;28;20048;-84
2022/01/03 10:41:26;;;;;;;150.82;93.20;;;11.30;1.00;;;;;;5038216;28;20562;-83
2022/01/03 10:43:58;;;;;;;151.60;95.35;;;11.40;1.00;;;;;;5041236;28;20089;-82
2022/01/03 10:46:26;;;;;;;152.02;99.28;;;11.40;1.00;;;;;;5039340;28;20116;-83
2022/01/03 10:48:56;;;;;;;154.65;98.80;;;11.40;1.00;;;;;;5039822;28;20037;-83
2022/01/03 10:51:25;;;;;;;169.32;100.13;;;11.40;1.00;;;;;;5038625;28;20046;-85
2022/01/03 10:53:54;;;;;;;153.15;96.15;;;11.40;4.50;;;;;;5041041;28;20097;-85
2022/01/03 10:56:24;;;;;;;161.27;96.20;;;11.40;27.80;;;;;;5040401;28;20061;-83
2022/01/03 10:58:53;;;;;;;153.77;100.68;;;11.40;17.50;;;;;;5040315;28;20045;-84
2022/01/03 11:01:23;;;;;;;144.10;89.97;;;11.50;26.10;;;;;;5054650;28;20050;-82
2022/01/03 11:03:51;;;;;;;127.43;82.38;;;11.50;17.60;;;;;;5039631;28;20424;-85
2022/01/03 11:06:46;;;;;;;134.60;84.78;;;11.60;30.00;;;;;;5039490;28;20493;-84
2022/01/03 11:12:18;;;;;;;152.40;94.50;;;11.90;45.10;;;;;;5038569;28;20033;-83
2022/01/03 11:14:45;;;;;;;157.93;94.97;;;12.10;45.90;;;;;;5038507;28;20136;-84
2022/01/03 11:17:29;;;;;;;149.93;91.22;;;12.10;58.00;;;;;;5040599;28;20053;-84
2022/01/03 11:19:59;;;;;;;150.43;93.93;;;12.20;54.50;;;;;;5039555;28;20144;-84
2022/01/03 11:22:41;;;;;;;148.38;92.20;;;12.40;74.60;;;;;;5039808;28;20041;-82
2022/01/03 11:25:10;;;;;;;171.57;105.38;;;12.70;57.20;;;;;;5039536;28;20071;-84
2022/01/03 11:27:40;;;;;;;248.18;154.30;;;12.80;69.30;;;;;;5039677;28;20178;-83
2022/01/03 11:30:10;;;;;;;255.65;166.02;;;12.90;78.30;;;;;;5038646;28;20068;-83
2022/01/03 11:32:43;;;;;;;283.70;191.43;;;13.00;68.20;;;;;;5054654;28;20065;-83
2022/01/03 11:35:11;;;;;;;268.90;179.88;;;13.00;55.30;;;;;;5040851;28;20049;-83
2022/01/03 11:37:45;;;;;;;257.17;167.40;;;12.80;63.70;;;;;;5040232;28;20105;-83
2022/01/03 11:40:14;;;;;;;238.07;156.43;;;12.50;52.50;;;;;;5039897;28;20048;-83
2022/01/03 11:42:43;;;;;;;229.15;149.70;;;12.20;30.00;;;;;;5040450;28;20044;-87
2022/01/03 11:45:11;;;;;;;215.23;147.20;;;12.00;14.80;;;;;;5039742;28;20485;-85
2022/01/03 11:47:40;;;;;;;215.50;139.35;;;11.90;7.40;;;;;;5044440;28;20060;-83
2022/01/03 11:50:09;;;;;;;216.20;146.65;;;11.60;1.00;;;;;;5055306;28;20110;-84
2022/01/03 11:52:40;;;;;;;209.38;135.38;;;11.50;1.00;;;;;;5039653;28;20112;-85
2022/01/03 11:55:08;;;;;;;217.43;139.02;;;11.40;1.00;;;;;;5055745;28;20045;-83
2022/01/03 12:03:54;;;;;;;243.30;151.25;;;11.30;1.00;;;;;;5044679;28;20062;-85
2022/01/03 12:06:28;;;;;;;253.35;153.25;;;11.50;1.00;;;;;;5038812;28;20468;-84
2022/01/03 12:08:58;;;;;;;247.57;159.95;;;11.60;1.00;;;;;;5038891;28;20055;-82
2022/01/03 12:11:28;;;;;;;276.65;165.95;;;11.80;1.00;;;;;;5038672;28;20114;-83
2022/01/03 12:13:57;;;;;;;277.08;173.40;;;12.00;1.00;;;;;;5038169;28;20393;-83
2022/01/03 12:16:46;;;;;;;293.13;180.88;;;12.00;1.00;;;;;;5053038;28;20049;-82
2022/01/03 12:19:30;;;;;;;287.27;180.75;;;12.10;1.00;;;;;;5037613;28;20075;-83
2022/01/03 12:22:00;;;;;;;300.33;179.98;;;12.10;1.00;;;;;;5035639;28;20045;-85
2022/01/03 12:24:56;;;;;;;292.75;188.55;;;12.10;1.00;;;;;;5042049;28;20040;-84
2022/01/03 12:27:36;;;;;;;306.85;199.45;;;12.10;1.00;;;;;;5043349;28;20428;-83
2022/01/03 12:30:23;;;;;;;328.63;203.93;;;12.20;1.00;;;;;;5044040;28;20052;-84
2022/01/03 12:33:16;;;;;;;297.52;189.35;;;12.30;1.00;;;;;;5042738;28;20041;-85
2022/01/03 12:35:47;;;;;;;295.70;186.77;;;12.50;1.00;;;;;;5047821;28;20536;-83
2022/01/03 12:38:20;;;;;;;293.33;183.98;;;12.50;1.00;;;;;;5043818;28;20132;-86
2022/01/03 12:40:53;;;;;;;302.05;195.93;;;12.50;1.00;;;;;;5045772;28;20037;-83
2022/01/03 12:43:46;;;;;;;298.67;190.63;;;12.50;1.00;;;;;;5045125;28;20038;-85
2022/01/03 12:46:24;;;;;;;302.48;193.95;;;12.70;1.00;;;;;;5056758;28;20053;-84
2022/01/03 12:48:52;;;;;;;293.73;187.07;;;12.80;4.60;;;;;;5039192;28;20037;-84
2022/01/03 12:51:21;;;;;;;271.58;175.50;;;12.80;1.00;;;;;;5038968;28;20080;-85
2022/01/03 12:53:50;;;;;;;277.77;179.45;;;12.80;2.90;;;;;;5047107;28;20084;-79
2022/01/03 12:56:22;;;;;;;301.10;181.18;;;12.80;1.00;;;;;;5050478;28;20056;-84
2022/01/03 12:58:52;;;;;;;296.85;183.32;;;12.80;1.00;;;;;;5055895;28;20065;-83
2022/01/03 13:01:27;;;;;;;283.80;178.60;;;12.70;1.00;;;;;;5042451;28;20045;-84